sensor_id;sensor_type;location;lat;lon;timestamp;P1;durP1;ratioP1;P2;durP2;ratioP2
13483;SDS011;6814;57.786;12.080;2022-12-18T00:01:29;52.43;;;25.33;;
13483;SDS011;6814;57.786;12.080;2022-12-18T00:03:57;47.07;;;22.13;;
13483;SDS011;6814;57.786;12.080;2022-12-18T00:06:24;46.23;;;23.27;;
13483;SDS011;6814;57.786;12.080;2022-12-18T00:08:50;56.13;;;23.93;;
13483;SDS011;6814;57.786;12.080;2022-12-18T00:11:19;50.67;;;22.33;;
13483;SDS011;6814;57.786;12.080;2022-12-18T00:13:46;47.93;;;22.23;;
13483;SDS011;6814;57.786;12.080;2022-12-18T00:16:13;29.57;;;15.80;;
13483;SDS011;6814;57.786;12.080;2022-12-18T00:18:40;48.00;;;24.30;;
13483;SDS011;6814;57.786;12.080;2022-12-18T00:21:08;51.83;;;26.20;;
13483;SDS011;6814;57.786;12.080;2022-12-18T00:23:35;56.83;;;26.93;;
13483;SDS011;6814;57.786;12.080;2022-12-18T00:26:03;43.30;;;20.30;;
13483;SDS011;6814;57.786;12.080;2022-12-18T00:28:31;45.90;;;21.93;;
13483;SDS011;6814;57.786;12.080;2022-12-18T00:31:00;44.43;;;20.27;;
13483;SDS011;6814;57.786;12.080;2022-12-18T00:33:27;60.43;;;28.27;;
13483;SDS011;6814;57.786;12.080;2022-12-18T00:35:53;47.27;;;19.57;;
13483;SDS011;6814;57.786;12.080;2022-12-18T00:38:20;50.97;;;22.80;;
13483;SDS011;6814;57.786;12.080;2022-12-18T00:40:46;47.33;;;19.83;;
13483;SDS011;6814;57.786;12.080;2022-12-18T00:43:13;50.63;;;22.00;;
13483;SDS011;6814;57.786;12.080;2022-12-18T00:45:39;49.23;;;18.97;;
13483;SDS011;6814;57.786;12.080;2022-12-18T00:48:06;48.97;;;21.70;;
13483;SDS011;6814;57.786;12.080;2022-12-18T00:50:32;44.97;;;21.23;;
13483;SDS011;6814;57.786;12.080;2022-12-18T00:52:59;42.77;;;18.03;;
13483;SDS011;6814;57.786;12.080;2022-12-18T00:55:25;32.70;;;15.37;;
13483;SDS011;6814;57.786;12.080;2022-12-18T00:57:52;53.90;;;21.10;;
13483;SDS011;6814;57.786;12.080;2022-12-18T01:00:18;33.40;;;14.63;;
13483;SDS011;6814;57.786;12.080;2022-12-18T01:02:46;29.23;;;14.33;;
13483;SDS011;6814;57.786;12.080;2022-12-18T01:05:13;32.53;;;16.27;;
13483;SDS011;6814;57.786;12.080;2022-12-18T01:07:39;30.70;;;15.70;;
13483;SDS011;6814;57.786;12.080;2022-12-18T01:10:06;49.43;;;20.67;;
13483;SDS011;6814;57.786;12.080;2022-12-18T01:12:33;38.00;;;18.90;;
13483;SDS011;6814;57.786;12.080;2022-12-18T01:14:59;80.30;;;39.07;;
13483;SDS011;6814;57.786;12.080;2022-12-18T01:17:26;45.17;;;21.87;;
13483;SDS011;6814;57.786;12.080;2022-12-18T01:19:53;34.87;;;17.07;;
13483;SDS011;6814;57.786;12.080;2022-12-18T01:22:20;45.17;;;19.30;;
13483;SDS011;6814;57.786;12.080;2022-12-18T01:24:46;32.50;;;14.97;;
13483;SDS011;6814;57.786;12.080;2022-12-18T01:27:13;31.97;;;15.63;;
13483;SDS011;6814;57.786;12.080;2022-12-18T01:29:39;32.37;;;16.27;;
13483;SDS011;6814;57.786;12.080;2022-12-18T01:32:05;37.20;;;19.13;;
13483;SDS011;6814;57.786;12.080;2022-12-18T01:34:32;33.50;;;15.13;;
13483;SDS011;6814;57.786;12.080;2022-12-18T01:37:00;32.93;;;16.70;;
13483;SDS011;6814;57.786;12.080;2022-12-18T01:39:28;33.73;;;16.77;;
13483;SDS011;6814;57.786;12.080;2022-12-18T01:41:54;26.87;;;12.73;;
13483;SDS011;6814;57.786;12.080;2022-12-18T01:44:51;24.27;;;12.57;;
13483;SDS011;6814;57.786;12.080;2022-12-18T01:47:20;21.80;;;10.50;;
13483;SDS011;6814;57.786;12.080;2022-12-18T01:49:47;28.40;;;15.30;;
13483;SDS011;6814;57.786;12.080;2022-12-18T01:52:15;26.60;;;13.37;;
13483;SDS011;6814;57.786;12.080;2022-12-18T01:54:43;28.37;;;15.30;;
13483;SDS011;6814;57.786;12.080;2022-12-18T01:57:09;29.47;;;15.60;;
13483;SDS011;6814;57.786;12.080;2022-12-18T01:59:36;26.03;;;14.03;;
13483;SDS011;6814;57.786;12.080;2022-12-18T02:02:02;30.53;;;14.03;;
13483;SDS011;6814;57.786;12.080;2022-12-18T02:04:29;27.80;;;13.13;;
13483;SDS011;6814;57.786;12.080;2022-12-18T02:06:57;26.80;;;13.10;;
13483;SDS011;6814;57.786;12.080;2022-12-18T02:09:28;31.83;;;15.40;;
13483;SDS011;6814;57.786;12.080;2022-12-18T02:11:59;25.87;;;12.60;;
13483;SDS011;6814;57.786;12.080;2022-12-18T02:14:28;27.50;;;13.90;;
13483;SDS011;6814;57.786;12.080;2022-12-18T02:16:59;24.73;;;12.20;;
13483;SDS011;6814;57.786;12.080;2022-12-18T02:19:37;27.90;;;13.23;;
13483;SDS011;6814;57.786;12.080;2022-12-18T02:22:07;22.70;;;12.43;;
13483;SDS011;6814;57.786;12.080;2022-12-18T02:24:39;23.83;;;11.37;;
13483;SDS011;6814;57.786;12.080;2022-12-18T02:27:09;27.50;;;12.67;;
13483;SDS011;6814;57.786;12.080;2022-12-18T02:29:37;22.00;;;11.80;;
13483;SDS011;6814;57.786;12.080;2022-12-18T02:32:06;34.73;;;14.27;;
13483;SDS011;6814;57.786;12.080;2022-12-18T02:34:34;50.97;;;22.17;;
13483;SDS011;6814;57.786;12.080;2022-12-18T02:37:02;44.03;;;18.20;;
13483;SDS011;6814;57.786;12.080;2022-12-18T02:39:30;51.60;;;19.83;;
13483;SDS011;6814;57.786;12.080;2022-12-18T02:41:58;53.30;;;19.97;;
13483;SDS011;6814;57.786;12.080;2022-12-18T02:44:28;70.33;;;24.33;;
13483;SDS011;6814;57.786;12.080;2022-12-18T02:46:55;62.90;;;20.90;;
13483;SDS011;6814;57.786;12.080;2022-12-18T02:49:24;61.97;;;23.87;;
13483;SDS011;6814;57.786;12.080;2022-12-18T02:51:52;80.80;;;31.17;;
13483;SDS011;6814;57.786;12.080;2022-12-18T02:54:22;68.67;;;25.07;;
13483;SDS011;6814;57.786;12.080;2022-12-18T02:56:50;63.97;;;21.50;;
13483;SDS011;6814;57.786;12.080;2022-12-18T02:59:18;60.03;;;21.50;;
13483;SDS011;6814;57.786;12.080;2022-12-18T03:01:49;54.90;;;22.00;;
13483;SDS011;6814;57.786;12.080;2022-12-18T03:04:19;63.23;;;24.20;;
13483;SDS011;6814;57.786;12.080;2022-12-18T03:06:48;60.87;;;23.23;;
13483;SDS011;6814;57.786;12.080;2022-12-18T03:09:17;57.07;;;19.40;;
13483;SDS011;6814;57.786;12.080;2022-12-18T03:11:45;53.60;;;20.23;;
13483;SDS011;6814;57.786;12.080;2022-12-18T03:14:30;73.23;;;28.30;;
13483;SDS011;6814;57.786;12.080;2022-12-18T03:17:00;54.03;;;18.77;;
13483;SDS011;6814;57.786;12.080;2022-12-18T03:19:28;54.97;;;23.57;;
13483;SDS011;6814;57.786;12.080;2022-12-18T03:21:56;57.13;;;21.60;;
13483;SDS011;6814;57.786;12.080;2022-12-18T03:24:22;60.00;;;22.63;;
13483;SDS011;6814;57.786;12.080;2022-12-18T03:26:50;60.20;;;20.63;;
13483;SDS011;6814;57.786;12.080;2022-12-18T03:29:19;60.57;;;24.30;;
13483;SDS011;6814;57.786;12.080;2022-12-18T03:31:48;58.33;;;23.00;;
13483;SDS011;6814;57.786;12.080;2022-12-18T03:34:17;56.50;;;20.20;;
13483;SDS011;6814;57.786;12.080;2022-12-18T03:36:46;57.60;;;24.90;;
13483;SDS011;6814;57.786;12.080;2022-12-18T03:39:12;60.73;;;20.67;;
13483;SDS011;6814;57.786;12.080;2022-12-18T03:41:41;57.57;;;20.50;;
13483;SDS011;6814;57.786;12.080;2022-12-18T03:44:10;56.13;;;20.90;;
13483;SDS011;6814;57.786;12.080;2022-12-18T03:46:38;63.17;;;26.67;;
13483;SDS011;6814;57.786;12.080;2022-12-18T03:49:08;47.97;;;19.30;;
13483;SDS011;6814;57.786;12.080;2022-12-18T03:51:39;66.90;;;24.73;;
13483;SDS011;6814;57.786;12.080;2022-12-18T03:54:08;55.53;;;19.70;;
13483;SDS011;6814;57.786;12.080;2022-12-18T03:56:37;50.10;;;18.80;;
13483;SDS011;6814;57.786;12.080;2022-12-18T03:59:05;53.50;;;20.47;;
13483;SDS011;6814;57.786;12.080;2022-12-18T04:01:32;64.83;;;23.23;;
13483;SDS011;6814;57.786;12.080;2022-12-18T04:04:00;63.37;;;20.13;;
13483;SDS011;6814;57.786;12.080;2022-12-18T04:06:27;49.67;;;19.37;;
13483;SDS011;6814;57.786;12.080;2022-12-18T04:08:55;63.30;;;23.83;;
13483;SDS011;6814;57.786;12.080;2022-12-18T04:11:22;69.73;;;23.03;;
13483;SDS011;6814;57.786;12.080;2022-12-18T04:13:49;54.93;;;16.20;;
13483;SDS011;6814;57.786;12.080;2022-12-18T04:16:15;70.67;;;24.17;;
13483;SDS011;6814;57.786;12.080;2022-12-18T04:18:42;56.10;;;20.17;;
13483;SDS011;6814;57.786;12.080;2022-12-18T04:21:09;67.63;;;22.20;;
13483;SDS011;6814;57.786;12.080;2022-12-18T04:23:36;81.87;;;27.83;;
13483;SDS011;6814;57.786;12.080;2022-12-18T04:26:03;60.03;;;20.23;;
13483;SDS011;6814;57.786;12.080;2022-12-18T04:28:30;67.27;;;20.43;;
13483;SDS011;6814;57.786;12.080;2022-12-18T04:30:56;75.73;;;24.37;;
13483;SDS011;6814;57.786;12.080;2022-12-18T04:33:23;72.27;;;21.50;;
13483;SDS011;6814;57.786;12.080;2022-12-18T04:35:49;71.57;;;22.33;;
13483;SDS011;6814;57.786;12.080;2022-12-18T04:38:16;66.30;;;21.20;;
13483;SDS011;6814;57.786;12.080;2022-12-18T04:40:42;74.43;;;21.03;;
13483;SDS011;6814;57.786;12.080;2022-12-18T04:43:10;67.63;;;24.60;;
13483;SDS011;6814;57.786;12.080;2022-12-18T04:45:37;69.13;;;24.80;;
13483;SDS011;6814;57.786;12.080;2022-12-18T04:48:03;58.63;;;23.70;;
13483;SDS011;6814;57.786;12.080;2022-12-18T04:50:30;60.03;;;21.40;;
13483;SDS011;6814;57.786;12.080;2022-12-18T04:52:56;54.43;;;18.07;;
13483;SDS011;6814;57.786;12.080;2022-12-18T04:55:23;58.10;;;19.77;;
13483;SDS011;6814;57.786;12.080;2022-12-18T04:57:49;53.93;;;18.33;;
13483;SDS011;6814;57.786;12.080;2022-12-18T05:00:17;53.37;;;20.70;;
13483;SDS011;6814;57.786;12.080;2022-12-18T05:02:44;59.40;;;20.37;;
13483;SDS011;6814;57.786;12.080;2022-12-18T05:05:10;67.20;;;21.53;;
13483;SDS011;6814;57.786;12.080;2022-12-18T05:07:37;59.13;;;22.10;;
13483;SDS011;6814;57.786;12.080;2022-12-18T05:10:03;50.90;;;17.43;;
13483;SDS011;6814;57.786;12.080;2022-12-18T05:12:30;51.10;;;17.60;;
13483;SDS011;6814;57.786;12.080;2022-12-18T05:14:57;47.43;;;20.70;;
13483;SDS011;6814;57.786;12.080;2022-12-18T05:17:25;42.43;;;15.47;;
13483;SDS011;6814;57.786;12.080;2022-12-18T05:19:51;44.07;;;16.73;;
13483;SDS011;6814;57.786;12.080;2022-12-18T05:22:17;42.13;;;18.97;;
13483;SDS011;6814;57.786;12.080;2022-12-18T05:24:44;34.67;;;13.87;;
13483;SDS011;6814;57.786;12.080;2022-12-18T05:27:10;41.10;;;15.57;;
13483;SDS011;6814;57.786;12.080;2022-12-18T05:29:37;35.37;;;14.23;;
13483;SDS011;6814;57.786;12.080;2022-12-18T05:32:03;44.37;;;16.87;;
13483;SDS011;6814;57.786;12.080;2022-12-18T05:34:31;33.73;;;13.83;;
13483;SDS011;6814;57.786;12.080;2022-12-18T05:36:58;43.67;;;14.63;;
13483;SDS011;6814;57.786;12.080;2022-12-18T05:39:24;32.27;;;13.07;;
13483;SDS011;6814;57.786;12.080;2022-12-18T05:41:51;33.90;;;13.63;;
13483;SDS011;6814;57.786;12.080;2022-12-18T05:44:17;31.40;;;12.97;;
13483;SDS011;6814;57.786;12.080;2022-12-18T05:46:44;35.90;;;11.97;;
13483;SDS011;6814;57.786;12.080;2022-12-18T05:49:10;33.43;;;13.70;;
13483;SDS011;6814;57.786;12.080;2022-12-18T05:51:38;32.50;;;13.03;;
13483;SDS011;6814;57.786;12.080;2022-12-18T05:54:04;28.47;;;11.33;;
13483;SDS011;6814;57.786;12.080;2022-12-18T05:56:31;28.47;;;12.17;;
13483;SDS011;6814;57.786;12.080;2022-12-18T05:58:57;30.30;;;12.00;;
13483;SDS011;6814;57.786;12.080;2022-12-18T06:01:25;28.40;;;11.07;;
13483;SDS011;6814;57.786;12.080;2022-12-18T06:03:52;20.20;;;9.23;;
13483;SDS011;6814;57.786;12.080;2022-12-18T06:06:20;23.20;;;9.40;;
13483;SDS011;6814;57.786;12.080;2022-12-18T06:08:49;26.77;;;11.90;;
13483;SDS011;6814;57.786;12.080;2022-12-18T06:11:16;25.57;;;10.97;;
13483;SDS011;6814;57.786;12.080;2022-12-18T06:13:43;22.87;;;9.80;;
13483;SDS011;6814;57.786;12.080;2022-12-18T06:16:09;22.27;;;10.10;;
13483;SDS011;6814;57.786;12.080;2022-12-18T06:18:36;24.00;;;11.30;;
13483;SDS011;6814;57.786;12.080;2022-12-18T06:21:02;23.53;;;10.93;;
13483;SDS011;6814;57.786;12.080;2022-12-18T06:23:29;20.30;;;8.47;;
13483;SDS011;6814;57.786;12.080;2022-12-18T06:25:57;25.10;;;9.43;;
13483;SDS011;6814;57.786;12.080;2022-12-18T06:28:23;22.87;;;9.90;;
13483;SDS011;6814;57.786;12.080;2022-12-18T06:30:52;25.03;;;10.83;;
13483;SDS011;6814;57.786;12.080;2022-12-18T06:33:18;21.90;;;9.13;;
13483;SDS011;6814;57.786;12.080;2022-12-18T06:35:45;24.20;;;11.77;;
13483;SDS011;6814;57.786;12.080;2022-12-18T06:38:11;22.10;;;9.90;;
13483;SDS011;6814;57.786;12.080;2022-12-18T06:40:38;20.67;;;10.37;;
13483;SDS011;6814;57.786;12.080;2022-12-18T06:43:06;23.30;;;10.10;;
13483;SDS011;6814;57.786;12.080;2022-12-18T06:45:33;25.13;;;11.20;;
13483;SDS011;6814;57.786;12.080;2022-12-18T06:47:59;22.57;;;8.57;;
13483;SDS011;6814;57.786;12.080;2022-12-18T06:50:26;21.27;;;8.60;;
13483;SDS011;6814;57.786;12.080;2022-12-18T06:52:52;18.93;;;8.87;;
13483;SDS011;6814;57.786;12.080;2022-12-18T06:55:19;21.37;;;10.07;;
13483;SDS011;6814;57.786;12.080;2022-12-18T06:57:45;22.83;;;9.70;;
13483;SDS011;6814;57.786;12.080;2022-12-18T07:00:14;20.00;;;8.73;;
13483;SDS011;6814;57.786;12.080;2022-12-18T07:02:40;21.07;;;7.53;;
13483;SDS011;6814;57.786;12.080;2022-12-18T07:05:07;24.23;;;11.10;;
13483;SDS011;6814;57.786;12.080;2022-12-18T07:07:34;24.33;;;12.87;;
13483;SDS011;6814;57.786;12.080;2022-12-18T07:10:01;21.30;;;10.07;;
13483;SDS011;6814;57.786;12.080;2022-12-18T07:12:27;32.13;;;17.40;;
13483;SDS011;6814;57.786;12.080;2022-12-18T07:14:54;20.80;;;9.33;;
13483;SDS011;6814;57.786;12.080;2022-12-18T07:17:21;23.43;;;13.00;;
13483;SDS011;6814;57.786;12.080;2022-12-18T07:19:48;24.80;;;9.30;;
13483;SDS011;6814;57.786;12.080;2022-12-18T07:22:14;25.17;;;12.73;;
13483;SDS011;6814;57.786;12.080;2022-12-18T07:24:41;36.30;;;15.73;;
13483;SDS011;6814;57.786;12.080;2022-12-18T07:27:07;41.37;;;25.83;;
13483;SDS011;6814;57.786;12.080;2022-12-18T07:29:33;42.10;;;22.80;;
13483;SDS011;6814;57.786;12.080;2022-12-18T07:32:00;30.43;;;16.30;;
13483;SDS011;6814;57.786;12.080;2022-12-18T07:34:28;26.27;;;12.47;;
13483;SDS011;6814;57.786;12.080;2022-12-18T07:36:54;89.43;;;53.67;;
13483;SDS011;6814;57.786;12.080;2022-12-18T07:39:21;17.17;;;7.07;;
13483;SDS011;6814;57.786;12.080;2022-12-18T07:41:47;38.77;;;19.50;;
13483;SDS011;6814;57.786;12.080;2022-12-18T07:44:34;22.70;;;7.80;;
13483;SDS011;6814;57.786;12.080;2022-12-18T07:47:00;61.40;;;32.77;;
13483;SDS011;6814;57.786;12.080;2022-12-18T07:49:28;55.23;;;43.93;;
13483;SDS011;6814;57.786;12.080;2022-12-18T07:51:55;59.50;;;37.83;;
13483;SDS011;6814;57.786;12.080;2022-12-18T07:54:22;26.57;;;11.40;;
13483;SDS011;6814;57.786;12.080;2022-12-18T07:57:00;52.33;;;36.27;;
13483;SDS011;6814;57.786;12.080;2022-12-18T07:59:27;72.63;;;58.43;;
13483;SDS011;6814;57.786;12.080;2022-12-18T08:01:57;39.40;;;27.17;;
13483;SDS011;6814;57.786;12.080;2022-12-18T08:04:24;22.53;;;10.90;;
13483;SDS011;6814;57.786;12.080;2022-12-18T08:06:52;18.77;;;7.60;;
13483;SDS011;6814;57.786;12.080;2022-12-18T08:09:18;18.93;;;7.00;;
13483;SDS011;6814;57.786;12.080;2022-12-18T08:11:45;22.37;;;7.83;;
13483;SDS011;6814;57.786;12.080;2022-12-18T08:14:11;21.60;;;7.50;;
13483;SDS011;6814;57.786;12.080;2022-12-18T08:16:38;11.90;;;6.43;;
13483;SDS011;6814;57.786;12.080;2022-12-18T08:19:05;21.83;;;7.07;;
13483;SDS011;6814;57.786;12.080;2022-12-18T08:21:31;19.33;;;7.20;;
13483;SDS011;6814;57.786;12.080;2022-12-18T08:23:59;16.13;;;6.87;;
13483;SDS011;6814;57.786;12.080;2022-12-18T08:26:27;22.70;;;7.60;;
13483;SDS011;6814;57.786;12.080;2022-12-18T08:28:54;19.43;;;7.33;;
13483;SDS011;6814;57.786;12.080;2022-12-18T08:31:21;17.67;;;6.33;;
13483;SDS011;6814;57.786;12.080;2022-12-18T08:33:48;21.30;;;6.10;;
13483;SDS011;6814;57.786;12.080;2022-12-18T08:36:15;17.60;;;6.73;;
13483;SDS011;6814;57.786;12.080;2022-12-18T08:38:42;20.70;;;7.40;;
13483;SDS011;6814;57.786;12.080;2022-12-18T08:41:10;20.23;;;6.97;;
13483;SDS011;6814;57.786;12.080;2022-12-18T08:43:37;20.53;;;7.10;;
13483;SDS011;6814;57.786;12.080;2022-12-18T08:46:21;14.30;;;5.43;;
13483;SDS011;6814;57.786;12.080;2022-12-18T08:48:49;18.00;;;6.67;;
13483;SDS011;6814;57.786;12.080;2022-12-18T08:51:16;19.80;;;8.30;;
13483;SDS011;6814;57.786;12.080;2022-12-18T08:53:43;14.53;;;5.93;;
13483;SDS011;6814;57.786;12.080;2022-12-18T08:56:10;16.20;;;6.80;;
13483;SDS011;6814;57.786;12.080;2022-12-18T08:58:39;19.70;;;7.87;;
13483;SDS011;6814;57.786;12.080;2022-12-18T09:01:06;17.40;;;7.10;;
13483;SDS011;6814;57.786;12.080;2022-12-18T09:03:33;33.30;;;21.50;;
13483;SDS011;6814;57.786;12.080;2022-12-18T09:06:00;48.53;;;30.83;;
13483;SDS011;6814;57.786;12.080;2022-12-18T09:08:26;34.87;;;19.53;;
13483;SDS011;6814;57.786;12.080;2022-12-18T09:10:53;27.97;;;16.30;;
13483;SDS011;6814;57.786;12.080;2022-12-18T09:13:21;16.70;;;8.47;;
13483;SDS011;6814;57.786;12.080;2022-12-18T09:15:50;21.50;;;8.97;;
13483;SDS011;6814;57.786;12.080;2022-12-18T09:18:17;22.87;;;8.27;;
13483;SDS011;6814;57.786;12.080;2022-12-18T09:20:44;17.23;;;8.47;;
13483;SDS011;6814;57.786;12.080;2022-12-18T09:23:11;19.43;;;7.60;;
13483;SDS011;6814;57.786;12.080;2022-12-18T09:25:38;16.43;;;8.07;;
13483;SDS011;6814;57.786;12.080;2022-12-18T09:28:05;25.87;;;8.17;;
13483;SDS011;6814;57.786;12.080;2022-12-18T09:30:33;19.67;;;7.63;;
13483;SDS011;6814;57.786;12.080;2022-12-18T09:32:59;18.23;;;7.33;;
13483;SDS011;6814;57.786;12.080;2022-12-18T09:35:26;15.53;;;6.07;;
13483;SDS011;6814;57.786;12.080;2022-12-18T09:37:53;21.57;;;7.57;;
13483;SDS011;6814;57.786;12.080;2022-12-18T09:40:21;26.00;;;9.67;;
13483;SDS011;6814;57.786;12.080;2022-12-18T09:42:50;22.07;;;8.57;;
13483;SDS011;6814;57.786;12.080;2022-12-18T09:45:18;18.60;;;8.13;;
13483;SDS011;6814;57.786;12.080;2022-12-18T09:47:46;24.23;;;10.47;;
13483;SDS011;6814;57.786;12.080;2022-12-18T09:50:16;17.07;;;8.10;;
13483;SDS011;6814;57.786;12.080;2022-12-18T09:52:48;18.60;;;8.87;;
13483;SDS011;6814;57.786;12.080;2022-12-18T09:55:17;19.60;;;7.63;;
13483;SDS011;6814;57.786;12.080;2022-12-18T09:57:53;18.43;;;7.77;;
13483;SDS011;6814;57.786;12.080;2022-12-18T10:00:22;26.43;;;10.30;;
13483;SDS011;6814;57.786;12.080;2022-12-18T10:02:53;19.67;;;9.07;;
13483;SDS011;6814;57.786;12.080;2022-12-18T10:05:26;18.90;;;8.63;;
13483;SDS011;6814;57.786;12.080;2022-12-18T10:07:55;17.17;;;7.80;;
13483;SDS011;6814;57.786;12.080;2022-12-18T10:10:27;20.40;;;8.47;;
13483;SDS011;6814;57.786;12.080;2022-12-18T10:12:59;20.80;;;6.17;;
13483;SDS011;6814;57.786;12.080;2022-12-18T10:15:29;19.60;;;7.80;;
13483;SDS011;6814;57.786;12.080;2022-12-18T10:18:00;18.03;;;7.10;;
13483;SDS011;6814;57.786;12.080;2022-12-18T10:20:32;19.70;;;7.40;;
13483;SDS011;6814;57.786;12.080;2022-12-18T10:23:00;17.27;;;7.13;;
13483;SDS011;6814;57.786;12.080;2022-12-18T10:25:29;17.47;;;6.87;;
13483;SDS011;6814;57.786;12.080;2022-12-18T10:27:59;19.23;;;8.00;;
13483;SDS011;6814;57.786;12.080;2022-12-18T10:30:27;15.73;;;6.67;;
13483;SDS011;6814;57.786;12.080;2022-12-18T10:32:53;19.13;;;6.83;;
13483;SDS011;6814;57.786;12.080;2022-12-18T10:35:23;14.13;;;6.57;;
13483;SDS011;6814;57.786;12.080;2022-12-18T10:40:47;16.43;;;7.07;;
13483;SDS011;6814;57.786;12.080;2022-12-18T10:43:14;13.40;;;6.20;;
13483;SDS011;6814;57.786;12.080;2022-12-18T10:45:41;15.17;;;5.57;;
13483;SDS011;6814;57.786;12.080;2022-12-18T10:48:17;22.13;;;6.20;;
13483;SDS011;6814;57.786;12.080;2022-12-18T10:50:47;11.00;;;5.50;;
13483;SDS011;6814;57.786;12.080;2022-12-18T10:53:16;17.27;;;6.07;;
13483;SDS011;6814;57.786;12.080;2022-12-18T10:55:44;16.13;;;5.53;;
13483;SDS011;6814;57.786;12.080;2022-12-18T10:58:23;11.83;;;6.10;;
13483;SDS011;6814;57.786;12.080;2022-12-18T11:01:09;18.93;;;6.10;;
13483;SDS011;6814;57.786;12.080;2022-12-18T11:03:36;12.90;;;5.67;;
13483;SDS011;6814;57.786;12.080;2022-12-18T11:06:08;11.10;;;4.53;;
13483;SDS011;6814;57.786;12.080;2022-12-18T11:08:35;9.73;;;4.17;;
13483;SDS011;6814;57.786;12.080;2022-12-18T11:11:02;14.20;;;5.20;;
13483;SDS011;6814;57.786;12.080;2022-12-18T11:13:29;13.07;;;5.10;;
13483;SDS011;6814;57.786;12.080;2022-12-18T11:15:56;11.13;;;4.60;;
13483;SDS011;6814;57.786;12.080;2022-12-18T11:18:25;10.23;;;5.00;;
13483;SDS011;6814;57.786;12.080;2022-12-18T11:20:52;12.43;;;5.73;;
13483;SDS011;6814;57.786;12.080;2022-12-18T11:23:21;10.67;;;4.63;;
13483;SDS011;6814;57.786;12.080;2022-12-18T11:25:56;13.90;;;5.20;;
13483;SDS011;6814;57.786;12.080;2022-12-18T11:28:27;13.97;;;4.90;;
13483;SDS011;6814;57.786;12.080;2022-12-18T11:31:08;8.20;;;4.50;;
13483;SDS011;6814;57.786;12.080;2022-12-18T11:33:35;14.03;;;5.50;;
13483;SDS011;6814;57.786;12.080;2022-12-18T11:36:04;15.00;;;5.97;;
13483;SDS011;6814;57.786;12.080;2022-12-18T11:38:34;11.00;;;4.87;;
13483;SDS011;6814;57.786;12.080;2022-12-18T11:41:03;12.17;;;5.97;;
13483;SDS011;6814;57.786;12.080;2022-12-18T11:43:31;9.00;;;4.60;;
13483;SDS011;6814;57.786;12.080;2022-12-18T11:45:59;11.80;;;5.80;;
13483;SDS011;6814;57.786;12.080;2022-12-18T11:48:28;16.50;;;5.50;;
13483;SDS011;6814;57.786;12.080;2022-12-18T11:50:57;15.40;;;5.33;;
13483;SDS011;6814;57.786;12.080;2022-12-18T11:53:24;10.83;;;5.60;;
13483;SDS011;6814;57.786;12.080;2022-12-18T11:55:56;17.97;;;6.47;;
13483;SDS011;6814;57.786;12.080;2022-12-18T11:58:28;15.33;;;5.60;;
13483;SDS011;6814;57.786;12.080;2022-12-18T12:00:57;13.27;;;6.33;;
13483;SDS011;6814;57.786;12.080;2022-12-18T12:03:36;19.37;;;6.20;;
13483;SDS011;6814;57.786;12.080;2022-12-18T12:06:08;17.07;;;6.43;;
13483;SDS011;6814;57.786;12.080;2022-12-18T12:08:42;13.97;;;5.97;;
13483;SDS011;6814;57.786;12.080;2022-12-18T12:11:13;18.60;;;6.47;;
13483;SDS011;6814;57.786;12.080;2022-12-18T12:13:45;18.87;;;7.57;;
13483;SDS011;6814;57.786;12.080;2022-12-18T12:16:21;19.80;;;6.47;;
13483;SDS011;6814;57.786;12.080;2022-12-18T12:18:52;20.17;;;7.03;;
13483;SDS011;6814;57.786;12.080;2022-12-18T12:21:20;16.23;;;6.13;;
13483;SDS011;6814;57.786;12.080;2022-12-18T12:23:52;13.13;;;5.23;;
13483;SDS011;6814;57.786;12.080;2022-12-18T12:26:25;17.57;;;6.30;;
13483;SDS011;6814;57.786;12.080;2022-12-18T12:28:59;15.57;;;6.23;;
13483;SDS011;6814;57.786;12.080;2022-12-18T12:31:41;13.53;;;5.50;;
13483;SDS011;6814;57.786;12.080;2022-12-18T12:34:12;18.00;;;5.23;;
13483;SDS011;6814;57.786;12.080;2022-12-18T12:36:46;13.57;;;6.00;;
13483;SDS011;6814;57.786;12.080;2022-12-18T12:39:16;15.00;;;7.33;;
13483;SDS011;6814;57.786;12.080;2022-12-18T12:41:45;16.50;;;7.20;;
13483;SDS011;6814;57.786;12.080;2022-12-18T12:44:30;16.43;;;6.40;;
13483;SDS011;6814;57.786;12.080;2022-12-18T12:46:59;11.93;;;5.73;;
13483;SDS011;6814;57.786;12.080;2022-12-18T12:49:27;14.20;;;6.33;;
13483;SDS011;6814;57.786;12.080;2022-12-18T12:51:56;12.13;;;5.47;;
13483;SDS011;6814;57.786;12.080;2022-12-18T12:54:24;14.10;;;6.17;;
13483;SDS011;6814;57.786;12.080;2022-12-18T12:56:56;17.27;;;6.03;;
13483;SDS011;6814;57.786;12.080;2022-12-18T12:59:25;16.60;;;6.30;;
13483;SDS011;6814;57.786;12.080;2022-12-18T13:01:57;19.43;;;7.63;;
13483;SDS011;6814;57.786;12.080;2022-12-18T13:04:27;13.20;;;5.57;;
13483;SDS011;6814;57.786;12.080;2022-12-18T13:06:58;17.03;;;6.37;;
13483;SDS011;6814;57.786;12.080;2022-12-18T13:09:29;13.17;;;6.40;;
13483;SDS011;6814;57.786;12.080;2022-12-18T13:11:57;13.67;;;6.47;;
13483;SDS011;6814;57.786;12.080;2022-12-18T13:14:44;11.73;;;6.00;;
13483;SDS011;6814;57.786;12.080;2022-12-18T13:17:14;13.73;;;5.83;;
13483;SDS011;6814;57.786;12.080;2022-12-18T13:19:41;13.80;;;6.00;;
13483;SDS011;6814;57.786;12.080;2022-12-18T13:22:19;16.27;;;5.83;;
13483;SDS011;6814;57.786;12.080;2022-12-18T13:24:47;13.60;;;5.87;;
13483;SDS011;6814;57.786;12.080;2022-12-18T13:29:59;16.97;;;6.80;;
13483;SDS011;6814;57.786;12.080;2022-12-18T13:32:26;12.53;;;5.67;;
13483;SDS011;6814;57.786;12.080;2022-12-18T13:37:51;13.57;;;6.10;;
13483;SDS011;6814;57.786;12.080;2022-12-18T13:43:14;14.97;;;5.87;;
13483;SDS011;6814;57.786;12.080;2022-12-18T13:45:43;14.77;;;6.70;;
13483;SDS011;6814;57.786;12.080;2022-12-18T13:48:17;13.47;;;6.40;;
13483;SDS011;6814;57.786;12.080;2022-12-18T13:50:47;19.30;;;6.10;;
13483;SDS011;6814;57.786;12.080;2022-12-18T13:53:15;14.70;;;6.00;;
13483;SDS011;6814;57.786;12.080;2022-12-18T13:55:45;14.50;;;5.70;;
13483;SDS011;6814;57.786;12.080;2022-12-18T13:58:12;13.43;;;5.20;;
13483;SDS011;6814;57.786;12.080;2022-12-18T14:00:41;16.77;;;5.30;;
13483;SDS011;6814;57.786;12.080;2022-12-18T14:03:16;16.53;;;5.73;;
13483;SDS011;6814;57.786;12.080;2022-12-18T14:05:44;13.90;;;5.43;;
13483;SDS011;6814;57.786;12.080;2022-12-18T14:08:12;11.37;;;5.30;;
13483;SDS011;6814;57.786;12.080;2022-12-18T14:10:40;13.23;;;5.23;;
13483;SDS011;6814;57.786;12.080;2022-12-18T14:13:07;19.50;;;6.53;;
13483;SDS011;6814;57.786;12.080;2022-12-18T14:15:35;17.00;;;6.40;;
13483;SDS011;6814;57.786;12.080;2022-12-18T14:18:03;18.17;;;5.27;;
13483;SDS011;6814;57.786;12.080;2022-12-18T14:20:37;21.50;;;7.20;;
13483;SDS011;6814;57.786;12.080;2022-12-18T14:23:23;20.03;;;6.20;;
13483;SDS011;6814;57.786;12.080;2022-12-18T14:25:50;17.37;;;6.10;;
13483;SDS011;6814;57.786;12.080;2022-12-18T14:28:17;16.57;;;5.50;;
13483;SDS011;6814;57.786;12.080;2022-12-18T14:30:44;15.90;;;6.60;;
13483;SDS011;6814;57.786;12.080;2022-12-18T14:33:12;18.47;;;6.43;;
13483;SDS011;6814;57.786;12.080;2022-12-18T14:35:41;15.83;;;6.03;;
13483;SDS011;6814;57.786;12.080;2022-12-18T14:38:19;17.83;;;5.47;;
13483;SDS011;6814;57.786;12.080;2022-12-18T14:40:46;14.47;;;6.73;;
13483;SDS011;6814;57.786;12.080;2022-12-18T14:43:12;17.10;;;6.77;;
13483;SDS011;6814;57.786;12.080;2022-12-18T14:45:39;13.97;;;5.53;;
13483;SDS011;6814;57.786;12.080;2022-12-18T14:48:07;18.53;;;5.90;;